createdAt,value
2023-02-23T00:00:31.811Z,-6.30
2023-02-23T00:03:02.643Z,-6.30
2023-02-23T00:05:30.852Z,-6.30
2023-02-23T00:07:58.005Z,-6.30
2023-02-23T00:10:34.516Z,-6.20
2023-02-23T00:13:02.470Z,-6.20
2023-02-23T00:15:30.024Z,-6.20
2023-02-23T00:17:57.907Z,-6.20
2023-02-23T00:20:40.026Z,-6.20
2023-02-23T00:23:20.174Z,-6.20
2023-02-23T00:25:53.743Z,-6.20
2023-02-23T00:28:20.672Z,-6.30
2023-02-23T00:30:48.861Z,-6.30
2023-02-23T00:33:17.757Z,-6.20
2023-02-23T00:35:45.571Z,-6.20
2023-02-23T00:38:14.140Z,-6.20
2023-02-23T00:40:48.085Z,-6.30
2023-02-23T00:43:35.000Z,-6.30
2023-02-23T00:46:16.754Z,-6.40
2023-02-23T00:49:05.077Z,-6.30
2023-02-23T00:51:45.081Z,-6.40
2023-02-23T00:54:32.001Z,-6.50
2023-02-23T00:57:14.183Z,-6.40
2023-02-23T01:00:03.032Z,-6.40
2023-02-23T01:02:49.976Z,-6.50
2023-02-23T01:05:40.118Z,-6.50
2023-02-23T01:08:23.002Z,-6.60
2023-02-23T01:11:17.477Z,-6.50
2023-02-23T01:13:59.988Z,-6.50
2023-02-23T01:16:47.109Z,-6.60
2023-02-23T01:19:26.960Z,-6.60
2023-02-23T01:22:02.771Z,-6.60
2023-02-23T01:24:29.813Z,-6.60
2023-02-23T01:26:56.893Z,-6.60
2023-02-23T01:29:23.905Z,-6.60
2023-02-23T01:31:51.418Z,-6.70
2023-02-23T01:34:19.270Z,-6.70
2023-02-23T01:36:46.268Z,-6.70
2023-02-23T01:39:18.152Z,-6.70
2023-02-23T01:41:45.610Z,-6.70
2023-02-23T01:44:12.818Z,-6.70
2023-02-23T01:46:41.595Z,-6.80
2023-02-23T01:49:11.142Z,-6.90
2023-02-23T01:51:43.105Z,-6.90
2023-02-23T01:54:14.482Z,-6.90
2023-02-23T01:56:44.462Z,-6.90
2023-02-23T01:59:15.336Z,-6.90
2023-02-23T02:01:43.322Z,-6.90
2023-02-23T02:04:16.686Z,-6.90
2023-02-23T02:07:01.049Z,-6.90
2023-02-23T02:09:43.055Z,-6.80
2023-02-23T02:12:30.160Z,-6.80
2023-02-23T02:15:17.547Z,-6.80
2023-02-23T02:18:17.170Z,-6.90
2023-02-23T02:21:11.702Z,-6.90
2023-02-23T02:24:04.189Z,-6.90
2023-02-23T02:26:33.949Z,-6.90
2023-02-23T02:29:03.841Z,-7.00
2023-02-23T02:31:49.847Z,-7.00
2023-02-23T02:34:23.250Z,-6.90
2023-02-23T02:36:57.490Z,-7.00
2023-02-23T02:39:38.329Z,-7.00
2023-02-23T02:42:05.467Z,-7.00
2023-02-23T02:44:50.136Z,-7.00
2023-02-23T02:47:19.662Z,-7.10
2023-02-23T02:49:49.651Z,-7.10
2023-02-23T02:52:17.884Z,-7.10
2023-02-23T02:54:48.829Z,-7.10
2023-02-23T02:57:16.939Z,-7.10
2023-02-23T03:00:03.557Z,-7.20
2023-02-23T03:02:50.465Z,-7.20
2023-02-23T03:05:37.976Z,-7.20
2023-02-23T03:08:47.754Z,-7.20
2023-02-23T03:11:50.141Z,-7.00
2023-02-23T03:15:08.165Z,-7.10
2023-02-23T03:18:19.059Z,-7.20
2023-02-23T03:21:19.363Z,-7.10
2023-02-23T03:24:17.902Z,-7.10
2023-02-23T03:27:23.231Z,-7.20
2023-02-23T03:30:35.147Z,-7.20
2023-02-23T03:33:41.805Z,-7.20
2023-02-23T03:36:50.225Z,-7.20
2023-02-23T03:39:55.055Z,-7.30
2023-02-23T03:43:02.228Z,-7.30
2023-02-23T03:46:01.993Z,-7.30
2023-02-23T03:49:09.110Z,-7.40
2023-02-23T03:52:19.218Z,-7.50
2023-02-23T03:55:27.763Z,-7.40
2023-02-23T03:58:33.168Z,-7.40
2023-02-23T04:01:38.974Z,-7.40
2023-02-23T04:04:38.160Z,-7.40
2023-02-23T04:07:51.173Z,-7.40
2023-02-23T04:10:57.347Z,-7.50
2023-02-23T04:13:38.123Z,-7.60
2023-02-23T04:16:15.211Z,-7.60
2023-02-23T04:19:02.291Z,-7.60
2023-02-23T04:21:42.341Z,-7.60
2023-02-23T04:24:29.257Z,-7.50
2023-02-23T04:27:09.249Z,-7.60
2023-02-23T04:29:56.225Z,-7.60
2023-02-23T04:32:36.449Z,-7.60
2023-02-23T04:35:25.205Z,-7.60
2023-02-23T04:38:05.280Z,-7.70
2023-02-23T04:40:52.272Z,-7.70
2023-02-23T04:43:26.026Z,-7.70
2023-02-23T04:45:53.660Z,-7.60
2023-02-23T04:48:20.738Z,-7.60
2023-02-23T04:50:47.685Z,-7.60
2023-02-23T04:53:14.616Z,-7.50
2023-02-23T04:55:42.374Z,-7.50
2023-02-23T04:58:13.715Z,-7.60
2023-02-23T05:00:41.298Z,-7.70
2023-02-23T05:03:17.497Z,-7.70
2023-02-23T05:06:04.211Z,-7.70
2023-02-23T05:08:44.324Z,-7.70
2023-02-23T05:11:20.549Z,-7.70
2023-02-23T05:13:47.543Z,-7.80
2023-02-23T05:16:14.653Z,-7.80
2023-02-23T05:18:42.363Z,-7.80
2023-02-23T05:21:10.662Z,-7.90
2023-02-23T05:23:37.793Z,-7.80
2023-02-23T05:26:06.401Z,-7.80
2023-02-23T05:28:34.676Z,-7.80
2023-02-23T05:31:03.785Z,-7.70
2023-02-23T05:33:31.398Z,-7.70
2023-02-23T05:35:58.946Z,-7.80
2023-02-23T05:38:27.352Z,-7.80
2023-02-23T05:40:54.273Z,-7.80
2023-02-23T05:43:21.495Z,-7.80
2023-02-23T05:45:48.416Z,-7.70
2023-02-23T05:48:15.326Z,-7.70
2023-02-23T05:50:42.287Z,-7.60
2023-02-23T05:53:10.497Z,-7.60
2023-02-23T05:55:37.755Z,-7.50
2023-02-23T05:58:04.665Z,-7.50
2023-02-23T06:00:31.724Z,-7.50
2023-02-23T06:02:58.622Z,-7.50
2023-02-23T06:05:25.711Z,-7.50
2023-02-23T06:07:53.974Z,-7.50
2023-02-23T06:10:20.922Z,-7.40
2023-02-23T06:12:47.986Z,-7.40
2023-02-23T06:15:14.990Z,-7.40
2023-02-23T06:17:41.926Z,-7.30
2023-02-23T06:20:09.343Z,-7.30
2023-02-23T06:22:36.377Z,-7.20
2023-02-23T06:25:05.169Z,-7.20
2023-02-23T06:27:32.171Z,-7.10
2023-02-23T06:29:59.187Z,-7.20
2023-02-23T06:32:32.419Z,-7.20
2023-02-23T06:35:10.051Z,-7.20
2023-02-23T06:37:40.337Z,-7.10
2023-02-23T06:40:07.626Z,-7.00
2023-02-23T06:42:36.088Z,-6.90
2023-02-23T06:45:03.885Z,-6.80
2023-02-23T06:47:30.879Z,-6.80
2023-02-23T06:49:57.837Z,-6.80
2023-02-23T06:52:26.360Z,-6.70
2023-02-23T06:54:53.272Z,-6.70
2023-02-23T06:57:20.598Z,-6.70
2023-02-23T06:59:47.647Z,-6.60
2023-02-23T07:02:14.636Z,-6.60
2023-02-23T07:04:41.652Z,-6.50
2023-02-23T07:07:08.957Z,-6.50
2023-02-23T07:09:43.030Z,-6.50
2023-02-23T07:12:30.324Z,-6.30
2023-02-23T07:15:11.478Z,-6.30
2023-02-23T07:18:05.549Z,-6.30
2023-02-23T07:20:52.418Z,-6.20
2023-02-23T07:23:33.606Z,-6.30
2023-02-23T07:26:20.520Z,-6.30
2023-02-23T07:29:00.315Z,-6.30
2023-02-23T07:31:50.156Z,-6.10
2023-02-23T07:34:30.303Z,-6.00
2023-02-23T07:37:17.773Z,-6.00
2023-02-23T07:39:58.310Z,-6.00
2023-02-23T07:42:46.520Z,-5.80
2023-02-23T07:45:24.344Z,-5.80
2023-02-23T07:48:11.424Z,-5.80
2023-02-23T07:50:51.354Z,-5.70
2023-02-23T07:53:38.461Z,-5.70
2023-02-23T07:56:19.335Z,-5.60
2023-02-23T07:59:06.459Z,-5.60
2023-02-23T08:01:46.357Z,-5.50
2023-02-23T08:04:33.525Z,-5.50
2023-02-23T08:07:14.376Z,-5.40
2023-02-23T08:10:08.364Z,-5.30
2023-02-23T08:12:55.488Z,-5.20
2023-02-23T08:15:35.326Z,-5.00
2023-02-23T08:18:29.376Z,-4.90
2023-02-23T08:21:16.363Z,-4.90
2023-02-23T08:23:56.503Z,-4.80
2023-02-23T08:26:44.350Z,-4.60
2023-02-23T08:29:24.482Z,-4.50
2023-02-23T08:32:11.457Z,-4.40
2023-02-23T08:34:51.481Z,-4.20
2023-02-23T08:37:38.412Z,-4.00
2023-02-23T08:40:15.650Z,-3.90
2023-02-23T08:42:42.879Z,-3.90
2023-02-23T08:45:10.646Z,-3.80
2023-02-23T08:47:37.687Z,-3.80
2023-02-23T08:50:05.401Z,-3.80
2023-02-23T08:52:32.577Z,-3.60
2023-02-23T08:54:59.584Z,-3.70
2023-02-23T08:57:29.402Z,-3.80
2023-02-23T08:59:56.440Z,-3.90
2023-02-23T09:02:23.919Z,-3.80
2023-02-23T09:04:54.098Z,-3.80
2023-02-23T09:07:23.332Z,-3.70
2023-02-23T09:09:56.503Z,-3.70
2023-02-23T09:12:25.640Z,-3.80
2023-02-23T09:14:53.918Z,-3.80
2023-02-23T09:17:23.105Z,-3.80
2023-02-23T09:20:03.402Z,-3.80
2023-02-23T09:22:48.951Z,-3.80
2023-02-23T09:25:36.466Z,-3.80
2023-02-23T09:28:23.688Z,-3.70
2023-02-23T09:31:29.493Z,-3.70
2023-02-23T09:34:10.377Z,-3.60
2023-02-23T09:36:58.413Z,-3.60
2023-02-23T09:39:44.156Z,-3.50
2023-02-23T09:42:39.512Z,-3.40
2023-02-23T09:45:37.429Z,-3.40
2023-02-23T09:48:24.844Z,-3.30
2023-02-23T09:51:05.420Z,-3.10
2023-02-23T09:53:48.255Z,-3.20
2023-02-23T09:56:43.485Z,-3.20
2023-02-23T09:59:31.388Z,-3.00
2023-02-23T10:02:37.545Z,-3.20
2023-02-23T10:05:28.479Z,-3.10
2023-02-23T10:08:27.131Z,-3.10
2023-02-23T10:11:16.617Z,-3.10
2023-02-23T10:14:02.356Z,-2.90
2023-02-23T10:16:56.532Z,-2.80
2023-02-23T10:19:51.501Z,-2.60
2023-02-23T10:22:32.554Z,-2.50
2023-02-23T10:25:27.478Z,-2.40
2023-02-23T10:28:08.632Z,-2.20
2023-02-23T10:30:56.621Z,-2.30
2023-02-23T10:33:48.510Z,-2.30
2023-02-23T10:36:33.390Z,-2.40
2023-02-23T10:39:00.443Z,-2.50
2023-02-23T10:41:27.718Z,-2.50
2023-02-23T10:43:55.935Z,-2.40
2023-02-23T10:46:25.063Z,-2.50
2023-02-23T10:48:55.877Z,-2.50
2023-02-23T10:51:28.436Z,-2.40
2023-02-23T10:53:55.668Z,-2.30
2023-02-23T10:56:23.436Z,-2.30
2023-02-23T10:58:51.549Z,-2.40
2023-02-23T11:02:00.432Z,-2.30
2023-02-23T11:04:32.888Z,-2.30
2023-02-23T11:07:15.295Z,-2.20
2023-02-23T11:09:47.575Z,-2.20
2023-02-23T11:12:26.569Z,-2.20
2023-02-23T11:15:35.676Z,-2.10
2023-02-23T11:18:28.646Z,-2.10
2023-02-23T11:21:24.634Z,-2.10
2023-02-23T11:24:11.716Z,-2.00
2023-02-23T11:26:53.532Z,-1.90
2023-02-23T11:29:48.751Z,-1.90
2023-02-23T11:32:22.424Z,-1.90
2023-02-23T11:35:27.733Z,-1.90
2023-02-23T11:37:56.342Z,-1.80
2023-02-23T11:40:27.832Z,-2.00
2023-02-23T11:43:10.230Z,-2.00
2023-02-23T11:45:54.806Z,-1.90
2023-02-23T11:48:43.041Z,-1.80
2023-02-23T11:51:10.314Z,-1.80
2023-02-23T11:53:42.928Z,-1.80
2023-02-23T11:56:12.722Z,-1.80
2023-02-23T11:59:00.558Z,-1.80
2023-02-23T12:02:10.706Z,-1.80
2023-02-23T12:05:01.408Z,-1.90
2023-02-23T12:07:43.700Z,-1.90
2023-02-23T12:10:33.638Z,-1.80
2023-02-23T12:13:25.564Z,-1.80
2023-02-23T12:16:36.756Z,-1.80
2023-02-23T12:19:39.674Z,-1.70
2023-02-23T12:22:21.691Z,-1.70
2023-02-23T12:25:11.608Z,-1.70
2023-02-23T12:27:54.662Z,-1.70
2023-02-23T12:30:41.653Z,-1.70
2023-02-23T12:33:34.044Z,-1.70
2023-02-23T12:36:32.627Z,-1.60
2023-02-23T12:39:30.908Z,-1.60
2023-02-23T12:42:23.697Z,-1.80
2023-02-23T12:45:06.728Z,-1.70
2023-02-23T12:47:53.674Z,-1.70
2023-02-23T12:50:33.888Z,-1.60
2023-02-23T12:53:20.597Z,-1.60
2023-02-23T12:56:06.825Z,-1.50
2023-02-23T12:59:13.680Z,-1.50
2023-02-23T13:01:54.417Z,-1.60
2023-02-23T13:04:56.746Z,-1.40
2023-02-23T13:07:46.660Z,-1.30
2023-02-23T13:10:52.805Z,-1.40
2023-02-23T13:13:58.634Z,-1.50
2023-02-23T13:17:01.723Z,-1.50
2023-02-23T13:19:42.507Z,-1.50
2023-02-23T13:22:25.350Z,-1.50
2023-02-23T13:24:53.585Z,-1.40
2023-02-23T13:27:28.668Z,-1.40
2023-02-23T13:29:56.916Z,-1.30
2023-02-23T13:32:25.518Z,-1.30
2023-02-23T13:34:54.739Z,-1.40
2023-02-23T13:37:23.939Z,-1.40
2023-02-23T13:39:59.821Z,-1.40
2023-02-23T13:42:45.691Z,-1.40
2023-02-23T13:45:22.825Z,-1.30
2023-02-23T13:47:54.600Z,-1.40
2023-02-23T13:50:44.595Z,-1.40
2023-02-23T13:53:28.115Z,-1.40
2023-02-23T13:55:58.264Z,-1.50
2023-02-23T13:58:29.917Z,-1.50
2023-02-23T14:01:11.143Z,-1.50
2023-02-23T14:03:47.116Z,-1.50
2023-02-23T14:06:15.621Z,-1.50
2023-02-23T14:08:43.657Z,-1.50
2023-02-23T14:11:10.752Z,-1.50
2023-02-23T14:13:42.960Z,-1.40
2023-02-23T14:16:14.864Z,-1.40
2023-02-23T14:19:07.708Z,-1.40
2023-02-23T14:21:58.945Z,-1.40
2023-02-23T14:24:45.697Z,-1.30
2023-02-23T14:27:48.800Z,-1.30
2023-02-23T14:30:28.864Z,-1.30
2023-02-23T14:33:35.763Z,-1.30
2023-02-23T14:36:27.840Z,-1.30
2023-02-23T14:39:22.714Z,-1.30
2023-02-23T14:41:58.039Z,-1.30
2023-02-23T14:44:30.630Z,-1.30
2023-02-23T14:47:03.378Z,-1.40
2023-02-23T14:49:40.495Z,-1.40
2023-02-23T14:52:07.581Z,-1.30
2023-02-23T14:54:36.039Z,-1.30
2023-02-23T14:57:04.890Z,-1.30
2023-02-23T14:59:37.269Z,-1.30
2023-02-23T15:02:08.275Z,-1.20
2023-02-23T15:04:39.087Z,-1.30
2023-02-23T15:07:07.014Z,-1.20
2023-02-23T15:09:44.508Z,-1.20
2023-02-23T15:12:23.355Z,-1.20
2023-02-23T15:15:04.738Z,-1.10
2023-02-23T15:17:59.803Z,-1.10
2023-02-23T15:20:48.094Z,-1.20
2023-02-23T15:23:27.889Z,-1.30
2023-02-23T15:26:33.807Z,-1.30
2023-02-23T15:29:16.896Z,-1.30
2023-02-23T15:32:04.994Z,-1.30
2023-02-23T15:34:44.946Z,-1.30
2023-02-23T15:37:33.784Z,-1.30
2023-02-23T15:40:19.867Z,-1.20
2023-02-23T15:43:09.784Z,-1.20
2023-02-23T15:45:56.004Z,-1.20
2023-02-23T15:48:49.766Z,-1.20
2023-02-23T15:51:51.125Z,-1.20
2023-02-23T15:54:39.767Z,-1.20
2023-02-23T15:57:56.847Z,-1.30
2023-02-23T16:00:44.942Z,-1.20
2023-02-23T16:03:43.802Z,-1.20
2023-02-23T16:06:34.879Z,-1.20
2023-02-23T16:09:26.850Z,-1.20
2023-02-23T16:12:24.063Z,-1.30
2023-02-23T16:15:07.833Z,-1.30
2023-02-23T16:17:57.961Z,-1.20
2023-02-23T16:20:47.800Z,-1.20
2023-02-23T16:23:34.359Z,-1.20
2023-02-23T16:26:37.894Z,-1.20
2023-02-23T16:29:28.863Z,-1.20
2023-02-23T16:32:10.051Z,-1.30
2023-02-23T16:35:00.852Z,-1.30
2023-02-23T16:37:55.222Z,-1.30
2023-02-23T16:40:41.896Z,-1.30
2023-02-23T16:43:21.937Z,-1.30
2023-02-23T16:46:08.913Z,-1.30
2023-02-23T16:48:48.969Z,-1.30
2023-02-23T16:51:35.845Z,-1.30
2023-02-23T16:54:09.558Z,-1.40
2023-02-23T16:56:38.601Z,-1.40
2023-02-23T16:59:05.666Z,-1.40
2023-02-23T17:01:32.814Z,-1.40
2023-02-23T17:03:59.935Z,-1.40
2023-02-23T17:06:27.053Z,-1.40
2023-02-23T17:08:58.088Z,-1.40
2023-02-23T17:11:26.250Z,-1.40
2023-02-23T17:13:53.307Z,-1.40
2023-02-23T17:16:20.761Z,-1.30
2023-02-23T17:18:49.034Z,-1.30
2023-02-23T17:21:16.439Z,-1.30
2023-02-23T17:23:51.275Z,-1.40
2023-02-23T17:26:37.969Z,-1.40
2023-02-23T17:29:18.848Z,-1.40
2023-02-23T17:31:52.867Z,-1.40
2023-02-23T17:34:20.210Z,-1.40
2023-02-23T17:36:47.364Z,-1.40
2023-02-23T17:39:16.948Z,-1.40
2023-02-23T17:41:44.032Z,-1.40
2023-02-23T17:44:11.325Z,-1.40
2023-02-23T17:46:38.620Z,-1.40
2023-02-23T17:49:05.645Z,-1.40
2023-02-23T17:51:32.801Z,-1.40
2023-02-23T17:54:00.195Z,-1.40
2023-02-23T17:56:28.313Z,-1.40
2023-02-23T17:58:55.425Z,-1.40
2023-02-23T18:01:22.997Z,-1.40
2023-02-23T18:03:51.061Z,-1.40
2023-02-23T18:06:19.879Z,-1.30
2023-02-23T18:08:49.854Z,-1.40
2023-02-23T18:11:19.802Z,-1.40
2023-02-23T18:13:48.272Z,-1.40
2023-02-23T18:16:16.168Z,-1.40
2023-02-23T18:18:45.193Z,-1.40
2023-02-23T18:21:14.002Z,-1.40
2023-02-23T18:23:41.059Z,-1.50
2023-02-23T18:26:11.139Z,-1.40
2023-02-23T18:28:41.203Z,-1.40
2023-02-23T18:31:08.525Z,-1.40
2023-02-23T18:33:38.252Z,-1.40
2023-02-23T18:36:28.768Z,-1.40
2023-02-23T18:38:58.773Z,-1.30
2023-02-23T18:41:30.876Z,-1.30
2023-02-23T18:44:02.659Z,-1.30
2023-02-23T18:46:35.944Z,-1.30
2023-02-23T18:49:17.496Z,-1.30
2023-02-23T18:51:46.303Z,-1.30
2023-02-23T18:54:18.832Z,-1.30
2023-02-23T18:56:51.218Z,-1.30
2023-02-23T18:59:19.826Z,-1.20
2023-02-23T19:01:49.256Z,-1.30
2023-02-23T19:04:16.881Z,-1.20
2023-02-23T19:06:46.738Z,-1.20
2023-02-23T19:09:19.657Z,-1.20
2023-02-23T19:11:51.508Z,-1.20
2023-02-23T19:14:22.054Z,-1.20
2023-02-23T19:16:51.869Z,-1.10
2023-02-23T19:19:19.240Z,-1.20
2023-02-23T19:21:46.169Z,-1.20
2023-02-23T19:24:13.993Z,-1.20
2023-02-23T19:26:41.215Z,-1.20
2023-02-23T19:29:08.351Z,-1.20
2023-02-23T19:31:37.455Z,-1.20
2023-02-23T19:34:17.867Z,-1.10
2023-02-23T19:36:50.211Z,-1.20
2023-02-23T19:39:17.234Z,-1.20
2023-02-23T19:41:48.283Z,-1.20
2023-02-23T19:44:20.128Z,-1.10
2023-02-23T19:46:47.055Z,-1.10
2023-02-23T19:49:15.613Z,-1.00
2023-02-23T19:51:45.043Z,-1.00
2023-02-23T19:54:16.146Z,-1.00
2023-02-23T19:56:43.800Z,-0.90
2023-02-23T19:59:11.097Z,-0.90
2023-02-23T20:01:39.736Z,-0.90
2023-02-23T20:04:10.166Z,-0.90
2023-02-23T20:06:48.323Z,-0.90
2023-02-23T20:09:35.009Z,-0.90
2023-02-23T20:12:15.224Z,-0.90
2023-02-23T20:15:02.017Z,-0.90
2023-02-23T20:17:36.176Z,-0.90
2023-02-23T20:20:06.334Z,-1.00
2023-02-23T20:22:33.568Z,-1.00
2023-02-23T20:25:00.544Z,-1.10
2023-02-23T20:27:30.158Z,-1.20
2023-02-23T20:29:58.534Z,-1.30
2023-02-23T20:32:25.684Z,-1.30
2023-02-23T20:34:52.798Z,-1.40
2023-02-23T20:37:33.127Z,-1.40
2023-02-23T20:40:25.038Z,-1.30
2023-02-23T20:43:05.447Z,-1.40
2023-02-23T20:45:52.217Z,-1.30
2023-02-23T20:48:32.961Z,-1.30
2023-02-23T20:51:25.162Z,-1.30
2023-02-23T20:54:13.235Z,-1.30
2023-02-23T20:57:05.037Z,-1.30
2023-02-23T20:59:52.186Z,-1.30
2023-02-23T21:02:32.040Z,-1.40
2023-02-23T21:05:19.226Z,-1.40
2023-02-23T21:07:59.087Z,-1.30
2023-02-23T21:10:47.392Z,-1.30
2023-02-23T21:13:23.280Z,-1.30
2023-02-23T21:16:01.046Z,-1.30
2023-02-23T21:18:29.481Z,-1.30
2023-02-23T21:21:06.761Z,-1.30
2023-02-23T21:23:36.993Z,-1.20
2023-02-23T21:26:14.028Z,-1.20
2023-02-23T21:28:42.511Z,-1.20
2023-02-23T21:31:10.942Z,-1.20
2023-02-23T21:33:39.074Z,-1.20
2023-02-23T21:36:10.516Z,-1.20
2023-02-23T21:38:38.894Z,-1.20
2023-02-23T21:41:06.265Z,-1.10
2023-02-23T21:43:37.104Z,-1.20
2023-02-23T21:46:14.236Z,-1.10
2023-02-23T21:48:48.656Z,-1.10
2023-02-23T21:51:23.806Z,-1.10
2023-02-23T21:53:52.250Z,-1.10
2023-02-23T21:56:22.534Z,-1.10
2023-02-23T21:58:50.900Z,-1.00
2023-02-23T22:01:30.209Z,-1.00
2023-02-23T22:04:05.271Z,-1.10
2023-02-23T22:06:39.217Z,-1.00
2023-02-23T22:09:11.443Z,-1.10
2023-02-23T22:11:44.012Z,-1.10
2023-02-23T22:14:16.930Z,-1.10
2023-02-23T22:16:46.420Z,-1.00
2023-02-23T22:19:13.517Z,-1.00
2023-02-23T22:21:49.548Z,-1.10
2023-02-23T22:24:18.674Z,-1.10
2023-02-23T22:26:56.084Z,-1.00
2023-02-23T22:29:24.243Z,-1.00
2023-02-23T22:32:01.863Z,-1.00
2023-02-23T22:34:38.186Z,-1.00
2023-02-23T22:37:05.188Z,-1.00
2023-02-23T22:39:41.826Z,-1.00
2023-02-23T22:42:16.231Z,-1.00
2023-02-23T22:44:43.722Z,-0.90
2023-02-23T22:47:11.150Z,-1.00
2023-02-23T22:49:38.867Z,-0.90
2023-02-23T22:52:07.352Z,-0.90
2023-02-23T22:54:35.955Z,-0.90
2023-02-23T22:57:11.079Z,-0.80
2023-02-23T22:59:39.335Z,-0.80
2023-02-23T23:02:08.244Z,-0.90
2023-02-23T23:04:36.917Z,-0.80
2023-02-23T23:07:10.668Z,-0.80
2023-02-23T23:09:41.430Z,-0.80
2023-02-23T23:12:08.371Z,-0.80
2023-02-23T23:14:35.441Z,-0.80
2023-02-23T23:17:05.493Z,-0.80
2023-02-23T23:19:39.308Z,-0.80
2023-02-23T23:22:06.485Z,-0.70
2023-02-23T23:24:33.463Z,-0.70
2023-02-23T23:27:08.300Z,-0.80
2023-02-23T23:29:38.892Z,-0.70
2023-02-23T23:32:06.901Z,-0.80
2023-02-23T23:34:35.110Z,-0.80
2023-02-23T23:37:05.129Z,-0.80
2023-02-23T23:39:33.999Z,-0.80
2023-02-23T23:42:07.596Z,-0.70
2023-02-23T23:44:40.278Z,-0.70
2023-02-23T23:47:15.208Z,-0.70
2023-02-23T23:49:49.236Z,-0.70
2023-02-23T23:52:17.935Z,-0.70
2023-02-23T23:54:44.942Z,-0.70
2023-02-23T23:57:13.272Z,-0.60
2023-02-23T23:59:46.544Z,-0.70
